createdAt,value
2022-08-01T04:03:59.311Z,18.84
2022-08-01T04:06:13.723Z,18.889999
2022-08-01T04:08:29.344Z,19.02
2022-08-01T04:10:43.256Z,19.209999
2022-08-01T04:13:01.187Z,19.450001
2022-08-01T04:15:15.545Z,19.73
2022-08-01T04:17:30.070Z,20.02
2022-08-01T04:19:44.485Z,20.309999
2022-08-01T04:21:58.937Z,20.549999
2022-08-01T04:24:13.308Z,20.719999
2022-08-01T04:26:27.830Z,20.860001
2022-08-01T04:28:42.440Z,20.99
2022-08-01T04:31:01.361Z,21.110001
2022-08-01T04:33:14.828Z,21.25
2022-08-01T04:36:01.190Z,21.389999
2022-08-01T04:37:46.595Z,21.5
2022-08-01T04:40:01.032Z,21.559999
2022-08-01T04:42:15.416Z,21.59
2022-08-01T04:44:32.881Z,21.610001
2022-08-01T04:46:48.278Z,21.620001
2022-08-01T04:49:03.737Z,21.620001
2022-08-01T04:51:18.230Z,21.620001
2022-08-01T04:53:32.622Z,21.620001
2022-08-01T04:55:48.004Z,21.620001
2022-08-01T04:58:02.405Z,21.620001
2022-08-01T05:00:16.785Z,21.6
2022-08-01T05:02:31.293Z,21.549999
2022-08-01T05:04:45.689Z,21.51
2022-08-01T05:07:00.101Z,21.5
2022-08-01T05:09:15.475Z,21.51
2022-08-01T05:11:30.866Z,21.540001
2022-08-01T05:13:45.318Z,21.57
2022-08-01T05:15:59.677Z,21.610001
2022-08-01T05:18:15.021Z,21.66
2022-08-01T05:20:32.395Z,21.709999
2022-08-01T05:22:46.753Z,21.75
2022-08-01T05:25:01.159Z,21.780001
2022-08-01T05:27:16.294Z,21.809999
2022-08-01T05:29:30.889Z,21.83
2022-08-01T05:31:46.257Z,21.85
2022-08-01T05:34:00.622Z,21.870001
2022-08-01T05:36:17.041Z,21.9
2022-08-01T05:38:31.362Z,21.91
2022-08-01T05:40:45.786Z,21.91
2022-08-01T05:43:00.128Z,21.91
2022-08-01T05:45:14.490Z,21.9
2022-08-01T05:47:28.886Z,21.889999
2022-08-01T05:49:43.263Z,21.91
2022-08-01T05:51:57.647Z,21.93
2022-08-01T05:54:12.093Z,21.940001
2022-08-01T05:56:29.365Z,21.92
2022-08-01T05:58:42.829Z,21.9
2022-08-01T06:00:57.183Z,21.91
2022-08-01T06:03:11.571Z,21.889999
2022-08-01T06:05:26.036Z,21.870001
2022-08-01T06:07:40.457Z,21.870001
2022-08-01T06:09:54.834Z,21.860001
2022-08-01T06:12:09.356Z,21.860001
2022-08-01T06:14:23.709Z,21.860001
2022-08-01T06:16:38.080Z,21.83
2022-08-01T06:18:56.602Z,21.83
2022-08-01T06:21:07.825Z,21.860001
2022-08-01T06:23:31.589Z,21.889999
2022-08-01T06:25:39.587Z,21.93
2022-08-01T06:27:54.042Z,21.950001
2022-08-01T06:30:08.463Z,21.940001
2022-08-01T06:32:25.576Z,21.9
2022-08-01T06:34:37.163Z,21.85
2022-08-01T06:36:51.569Z,21.799999
2022-08-01T06:39:05.979Z,21.780001
2022-08-01T06:41:20.308Z,21.780001
2022-08-01T06:43:34.689Z,21.77
2022-08-01T06:45:49.065Z,21.780001
2022-08-01T06:48:03.428Z,21.790001
2022-08-01T06:50:17.817Z,21.799999
2022-08-01T06:52:32.363Z,21.790001
2022-08-01T06:54:46.772Z,21.780001
2022-08-01T06:57:01.125Z,21.77
2022-08-01T06:59:15.501Z,21.75
2022-08-01T07:01:30.009Z,21.74
2022-08-01T07:03:52.708Z,21.74
2022-08-01T07:06:02.738Z,21.73
2022-08-01T07:08:18.224Z,21.719999
2022-08-01T07:10:32.619Z,21.719999
2022-08-01T07:12:47.076Z,21.74
2022-08-01T07:15:01.460Z,21.77
2022-08-01T07:17:15.927Z,21.790001
2022-08-01T07:19:30.391Z,21.799999
2022-08-01T07:21:49.409Z,21.809999
2022-08-01T07:24:02.111Z,21.84
2022-08-01T07:26:19.476Z,21.870001
2022-08-01T07:28:33.813Z,21.889999
2022-08-01T07:30:51.396Z,21.91
2022-08-01T07:33:05.705Z,21.91
2022-08-01T07:35:20.148Z,21.91
2022-08-01T07:37:42.545Z,21.9
2022-08-01T07:39:51.906Z,21.889999
2022-08-01T07:42:08.205Z,21.889999
2022-08-01T07:44:20.607Z,21.9
2022-08-01T07:46:36.973Z,21.91
2022-08-01T07:48:51.417Z,21.92
2022-08-01T07:51:05.690Z,21.93
2022-08-01T07:53:20.191Z,21.950001
2022-08-01T07:55:34.560Z,21.98
2022-08-01T07:57:48.961Z,22.01
2022-08-01T08:00:03.341Z,22.02
2022-08-01T08:02:17.798Z,22.01
2022-08-01T08:04:32.244Z,22
2022-08-01T08:06:46.579Z,21.98
2022-08-01T08:09:00.966Z,21.969999
2022-08-01T08:11:16.354Z,21.959999
2022-08-01T08:13:30.684Z,21.959999
2022-08-01T08:15:45.106Z,21.959999
2022-08-01T08:17:59.449Z,21.950001
2022-08-01T08:20:13.831Z,21.950001
2022-08-01T08:22:28.206Z,21.950001
2022-08-01T08:24:45.787Z,21.950001
2022-08-01T08:26:56.910Z,21.98
2022-08-01T08:29:11.336Z,22.01
2022-08-01T08:31:51.107Z,22.059999
2022-08-01T08:33:43.024Z,22.120001
2022-08-01T08:35:57.416Z,22.18
2022-08-01T08:38:12.969Z,22.25
2022-08-01T08:40:28.282Z,22.27
2022-08-01T08:42:42.641Z,22.26
2022-08-01T08:44:56.995Z,22.24
2022-08-01T08:47:15.869Z,22.23
2022-08-01T08:49:35.754Z,22.25
2022-08-01T08:51:45.074Z,22.290001
2022-08-01T08:53:59.600Z,22.33
2022-08-01T08:56:13.930Z,22.42
2022-08-01T08:58:30.610Z,22.5
2022-08-01T09:00:42.793Z,22.559999
2022-08-01T09:02:58.177Z,22.610001
2022-08-01T09:05:16.177Z,22.639999
2022-08-01T09:07:28.791Z,22.65
2022-08-01T09:09:43.130Z,22.65
2022-08-01T09:11:58.132Z,22.67
2022-08-01T09:14:11.884Z,22.700001
2022-08-01T09:16:26.225Z,22.77
2022-08-01T09:18:40.703Z,22.91
2022-08-01T09:20:57.111Z,23.059999
2022-08-01T09:23:11.480Z,23.190001
2022-08-01T09:25:29.527Z,23.27
2022-08-01T09:27:44.017Z,23.280001
2022-08-01T09:30:00.522Z,23.290001
2022-08-01T09:32:13.924Z,23.309999
2022-08-01T09:34:28.236Z,23.26
2022-08-01T09:36:43.597Z,23.209999
2022-08-01T09:38:57.993Z,23.15
2022-08-01T09:41:14.311Z,23.120001
2022-08-01T09:43:29.704Z,23.09
2022-08-01T09:45:49.005Z,23.09
2022-08-01T09:48:02.385Z,23.139999
2022-08-01T09:50:18.872Z,23.24
2022-08-01T09:52:33.226Z,23.34
2022-08-01T09:54:49.626Z,23.4
2022-08-01T09:57:05.295Z,23.389999
2022-08-01T09:59:20.412Z,23.34
2022-08-01T10:01:38.545Z,23.290001
2022-08-01T10:03:52.215Z,23.290001
2022-08-01T10:06:06.589Z,23.34
2022-08-01T10:08:23.094Z,23.360001
2022-08-01T10:10:37.633Z,23.34
2022-08-01T10:12:53.691Z,23.280001
2022-08-01T10:15:08.084Z,23.25
2022-08-01T10:17:23.406Z,23.27
2022-08-01T10:19:40.824Z,23.35
2022-08-01T10:21:57.578Z,23.48
2022-08-01T10:24:10.544Z,23.59
2022-08-01T10:26:26.902Z,23.65
2022-08-01T10:28:41.261Z,23.66
2022-08-01T10:30:55.616Z,23.700001
2022-08-01T10:33:11.033Z,23.83
2022-08-01T10:35:46.220Z,24
2022-08-01T10:37:51.718Z,24.17
2022-08-01T10:40:27.539Z,24.35
2022-08-01T10:42:18.407Z,24.549999
2022-08-01T10:44:33.807Z,24.719999
2022-08-01T10:46:48.196Z,24.83
2022-08-01T10:49:02.583Z,24.879999
2022-08-01T10:51:19.036Z,24.940001
2022-08-01T10:53:42.326Z,25.059999
2022-08-01T10:55:51.545Z,25.17
2022-08-01T10:58:06.909Z,25.27
2022-08-01T11:00:23.359Z,25.370001
2022-08-01T11:02:38.664Z,25.440001
2022-08-01T11:04:54.063Z,25.48
2022-08-01T11:07:09.985Z,25.469999
2022-08-01T11:09:23.796Z,25.5
2022-08-01T11:11:41.201Z,25.59
2022-08-01T11:13:57.507Z,25.66
2022-08-01T11:16:12.616Z,25.74
2022-08-01T11:18:29.780Z,25.85
2022-08-01T11:20:45.710Z,25.98
2022-08-01T11:23:01.953Z,26.059999
2022-08-01T11:25:16.497Z,26.1
2022-08-01T11:27:33.973Z,26.1
2022-08-01T11:29:50.165Z,26.07
2022-08-01T11:32:04.558Z,26.059999
2022-08-01T11:34:18.918Z,26.02
2022-08-01T11:36:57.158Z,25.969999
2022-08-01T11:38:50.608Z,25.950001
2022-08-01T11:41:05.127Z,25.98
2022-08-01T11:43:19.452Z,26.08
2022-08-01T11:45:33.825Z,26.17
2022-08-01T11:47:50.265Z,26.299999
2022-08-01T11:50:04.546Z,26.33
2022-08-01T11:52:18.934Z,26.290001
2022-08-01T11:54:35.003Z,26.27
2022-08-01T11:56:48.031Z,26.309999
2022-08-01T11:59:02.992Z,26.379999
2022-08-01T12:01:20.342Z,26.440001
2022-08-01T12:03:35.697Z,26.58
2022-08-01T12:05:53.041Z,26.67
2022-08-01T12:08:07.413Z,26.65
2022-08-01T12:10:21.818Z,26.549999
2022-08-01T12:12:36.242Z,26.41
2022-08-01T12:14:50.609Z,26.290001
2022-08-01T12:17:05.221Z,26.23
2022-08-01T12:19:19.413Z,26.280001
2022-08-01T12:21:33.757Z,26.309999
2022-08-01T12:23:48.221Z,26.299999
2022-08-01T12:26:02.560Z,26.26
2022-08-01T12:28:17.935Z,26.209999
2022-08-01T12:30:32.409Z,26.16
2022-08-01T12:32:46.837Z,26.120001
2022-08-01T12:35:02.173Z,26.129999
2022-08-01T12:37:17.611Z,26.23
2022-08-01T12:39:30.900Z,26.450001
2022-08-01T12:41:47.247Z,26.690001
2022-08-01T12:44:01.603Z,26.950001
2022-08-01T12:46:15.933Z,27.129999
2022-08-01T12:48:30.368Z,27.27
2022-08-01T12:50:44.689Z,27.469999
2022-08-01T12:52:59.043Z,27.67
2022-08-01T12:55:14.405Z,27.82
2022-08-01T12:57:28.763Z,27.879999
2022-08-01T12:59:44.113Z,27.879999
2022-08-01T13:01:59.484Z,27.83
2022-08-01T13:04:12.824Z,27.74
2022-08-01T13:06:27.188Z,27.66
2022-08-01T13:08:41.545Z,27.610001
2022-08-01T13:10:55.920Z,27.639999
2022-08-01T13:13:10.278Z,27.700001
2022-08-01T13:15:27.624Z,27.709999
2022-08-01T13:17:41.964Z,27.67
2022-08-01T13:19:59.022Z,27.620001
2022-08-01T13:22:11.018Z,27.620001
2022-08-01T13:24:25.065Z,27.700001
2022-08-01T13:26:39.448Z,27.809999
2022-08-01T13:28:53.784Z,27.92
2022-08-01T13:31:08.188Z,28.059999
2022-08-01T13:33:22.600Z,28.129999
2022-08-01T13:35:38.921Z,28.110001
2022-08-01T13:37:54.302Z,28.049999
2022-08-01T13:40:09.737Z,27.99
2022-08-01T13:42:24.185Z,27.92
2022-08-01T13:44:38.548Z,27.85
2022-08-01T13:46:52.926Z,27.84
2022-08-01T13:49:10.096Z,27.860001
2022-08-01T13:51:23.639Z,28.07
2022-08-01T13:53:38.092Z,28.35
2022-08-01T13:55:52.493Z,28.59
2022-08-01T13:58:06.853Z,28.860001
2022-08-01T14:00:21.217Z,29.09
2022-08-01T14:02:35.735Z,29.24
2022-08-01T14:04:50.078Z,29.49
2022-08-01T14:07:09.775Z,29.799999
2022-08-01T14:09:23.995Z,29.98
2022-08-01T14:11:39.076Z,29.940001
2022-08-01T14:13:54.465Z,29.809999
2022-08-01T14:16:08.842Z,29.75
2022-08-01T14:18:25.198Z,29.809999
2022-08-01T14:20:39.574Z,29.709999
2022-08-01T14:22:53.899Z,29.639999
2022-08-01T14:25:08.270Z,29.68
2022-08-01T14:27:25.614Z,29.76
2022-08-01T14:29:54.745Z,29.940001
2022-08-01T14:31:57.321Z,30.16
2022-08-01T14:34:11.728Z,30.190001
2022-08-01T14:36:29.884Z,30.040001
2022-08-01T14:38:43.458Z,29.969999
2022-08-01T14:40:57.799Z,30.08
2022-08-01T14:43:16.135Z,30.08
2022-08-01T14:45:29.493Z,29.93
2022-08-01T14:47:43.874Z,29.719999
2022-08-01T14:49:58.251Z,29.51
2022-08-01T14:52:12.611Z,29.360001
2022-08-01T14:54:29.223Z,29.26
2022-08-01T14:56:42.348Z,29.18
2022-08-01T14:58:58.893Z,29.190001
2022-08-01T15:01:15.329Z,29.15
2022-08-01T15:03:29.750Z,29.07
2022-08-01T15:05:44.194Z,28.940001
2022-08-01T15:07:58.593Z,28.790001
2022-08-01T15:10:13.056Z,28.66
2022-08-01T15:12:35.690Z,28.620001
2022-08-01T15:14:44.898Z,28.530001
2022-08-01T15:16:59.348Z,28.42
2022-08-01T15:19:15.830Z,28.33
2022-08-01T15:21:41.042Z,28.25
2022-08-01T15:23:45.412Z,28.209999
2022-08-01T15:25:59.805Z,28.23
2022-08-01T15:28:14.312Z,28.290001
2022-08-01T15:30:28.654Z,28.280001
2022-08-01T15:32:43.116Z,28.24
2022-08-01T15:34:59.436Z,28.17
2022-08-01T15:37:13.835Z,28.110001
2022-08-01T15:39:29.233Z,28.1
2022-08-01T15:41:43.640Z,28.129999
2022-08-01T15:43:58.316Z,28.16
2022-08-01T15:46:12.696Z,28.15
2022-08-01T15:48:27.135Z,28.120001
2022-08-01T15:50:43.516Z,28.200001
2022-08-01T15:52:57.954Z,28.389999
2022-08-01T15:55:12.323Z,28.629999
2022-08-01T15:57:26.717Z,28.870001
2022-08-01T15:59:41.946Z,29.049999
2022-08-01T16:01:55.475Z,29.25
2022-08-01T16:04:09.779Z,29.450001
2022-08-01T16:06:24.187Z,29.65
2022-08-01T16:08:38.574Z,29.75
2022-08-01T16:10:52.911Z,29.799999
2022-08-01T16:13:07.907Z,29.76
2022-08-01T16:15:21.633Z,29.690001
2022-08-01T16:17:42.026Z,29.59
2022-08-01T16:19:54.372Z,29.52
2022-08-01T16:22:09.281Z,29.42
2022-08-01T16:24:24.152Z,29.389999
2022-08-01T16:26:38.564Z,29.5
2022-08-01T16:28:52.922Z,29.68
2022-08-01T16:31:15.447Z,29.809999
2022-08-01T16:33:38.885Z,29.799999
2022-08-01T16:35:42.125Z,29.639999
2022-08-01T16:37:58.477Z,29.43
2022-08-01T16:40:12.928Z,29.200001
2022-08-01T16:42:27.565Z,28.98
2022-08-01T16:44:41.815Z,28.77
2022-08-01T16:46:57.239Z,28.57
2022-08-01T16:49:11.700Z,28.4
2022-08-01T16:51:26.053Z,28.41
2022-08-01T16:53:41.414Z,28.540001
2022-08-01T16:55:55.832Z,28.73
2022-08-01T16:58:10.351Z,28.950001
2022-08-01T17:00:24.883Z,29.17
2022-08-01T17:02:39.203Z,29.34
2022-08-01T17:04:53.921Z,29.440001
2022-08-01T17:07:10.462Z,29.49
2022-08-01T17:09:24.666Z,29.459999
2022-08-01T17:11:39.155Z,29.440001
2022-08-01T17:13:53.569Z,29.43
2022-08-01T17:16:08.075Z,29.43
2022-08-01T17:18:22.438Z,29.459999
2022-08-01T17:20:36.848Z,29.5
2022-08-01T17:22:54.215Z,29.530001
2022-08-01T17:25:15.847Z,29.559999
2022-08-01T17:27:25.174Z,29.610001
2022-08-01T17:29:43.672Z,29.57
2022-08-01T17:31:55.247Z,29.42
2022-08-01T17:34:09.589Z,29.309999
2022-08-01T17:36:25.025Z,29.110001
2022-08-01T17:38:40.398Z,28.940001
2022-08-01T17:40:54.816Z,28.85
2022-08-01T17:43:09.103Z,28.77
2022-08-01T17:45:27.817Z,28.690001
2022-08-01T17:47:50.145Z,28.620001
2022-08-01T17:49:57.448Z,28.5
2022-08-01T17:52:12.001Z,28.32
2022-08-01T17:54:26.410Z,28.120001
2022-08-01T17:56:44.312Z,27.92
2022-08-01T17:58:56.373Z,27.74
2022-08-01T18:01:10.767Z,27.58
2022-08-01T18:03:30.144Z,27.41
2022-08-01T18:05:42.548Z,27.25
2022-08-01T18:08:02.313Z,27.09
2022-08-01T18:10:14.537Z,26.93
2022-08-01T18:12:30.113Z,26.75
2022-08-01T18:14:45.467Z,26.58
2022-08-01T18:16:59.923Z,26.41
2022-08-01T18:19:17.252Z,26.27
2022-08-01T18:21:31.652Z,26.139999
2022-08-01T18:23:51.144Z,26.01
2022-08-01T18:26:03.521Z,25.879999
2022-08-01T18:28:30.812Z,25.76
2022-08-01T18:30:35.247Z,25.639999
2022-08-01T18:32:49.658Z,25.530001
2022-08-01T18:35:07.834Z,25.43
2022-08-01T18:37:21.597Z,25.35
2022-08-01T18:39:40.553Z,25.280001
2022-08-01T18:41:55.555Z,25.200001
2022-08-01T18:44:10.344Z,25.120001
2022-08-01T18:46:25.154Z,25.030001
2022-08-01T18:48:39.553Z,24.940001
2022-08-01T18:50:54.277Z,24.860001
2022-08-01T18:53:08.419Z,24.780001
2022-08-01T18:55:22.825Z,24.709999
2022-08-01T18:57:40.839Z,24.639999
2022-08-01T18:59:52.621Z,24.57
2022-08-01T19:02:07.053Z,24.5
2022-08-01T19:04:21.562Z,24.42
2022-08-01T19:06:36.044Z,24.34
2022-08-01T19:08:50.363Z,24.26
2022-08-01T19:11:07.772Z,24.18
2022-08-01T19:13:22.155Z,24.110001
2022-08-01T19:15:36.498Z,24.049999
2022-08-01T19:17:50.869Z,23.98
2022-08-01T19:20:05.260Z,23.91
2022-08-01T19:22:20.574Z,23.85
2022-08-01T19:24:34.968Z,23.790001
2022-08-01T19:26:49.325Z,23.75
2022-08-01T19:29:04.530Z,23.719999
2022-08-01T19:31:18.935Z,23.68
2022-08-01T19:33:33.305Z,23.620001
2022-08-01T19:35:47.736Z,23.559999
2022-08-01T19:38:02.095Z,23.49
2022-08-01T19:40:26.506Z,23.42
2022-08-01T19:42:33.853Z,23.35
2022-08-01T19:44:48.165Z,23.280001
2022-08-01T19:47:02.510Z,23.23
2022-08-01T19:49:17.020Z,23.17
2022-08-01T19:51:32.856Z,23.129999
2022-08-01T19:53:45.677Z,23.09
2022-08-01T19:56:03.057Z,23.049999
2022-08-01T19:58:26.709Z,23.030001
2022-08-01T20:00:34.743Z,23.01
2022-08-01T20:02:49.151Z,23
2022-08-01T20:05:03.499Z,22.969999
2022-08-01T20:07:18.908Z,22.93
2022-08-01T20:09:33.332Z,22.889999
2022-08-01T20:11:47.677Z,22.870001
2022-08-01T20:14:02.074Z,22.85
2022-08-01T20:16:16.433Z,22.82
2022-08-01T20:18:30.907Z,22.809999
2022-08-01T20:20:45.383Z,22.780001
2022-08-01T20:22:58.710Z,22.74
2022-08-01T20:25:13.081Z,22.700001
2022-08-01T20:27:27.487Z,22.68
2022-08-01T20:29:41.819Z,22.65
2022-08-01T20:31:56.185Z,22.620001
2022-08-01T20:34:10.765Z,22.6
2022-08-01T20:36:26.132Z,22.559999
2022-08-01T20:38:41.601Z,22.51
2022-08-01T20:40:56.935Z,22.43
2022-08-01T20:43:11.258Z,22.370001
2022-08-01T20:45:25.668Z,22.33
2022-08-01T20:47:40.036Z,22.309999
2022-08-01T20:49:54.589Z,22.299999
2022-08-01T20:52:11.436Z,22.299999
2022-08-01T20:54:24.365Z,22.299999
2022-08-01T20:56:38.765Z,22.290001
2022-08-01T20:58:58.113Z,22.27
2022-08-01T21:01:09.777Z,22.25
2022-08-01T21:03:22.908Z,22.219999
2022-08-01T21:05:37.308Z,22.200001
2022-08-01T21:07:54.662Z,22.17
2022-08-01T21:10:09.022Z,22.16
2022-08-01T21:12:23.572Z,22.15
2022-08-01T21:14:37.898Z,22.129999
2022-08-01T21:16:52.385Z,22.1
2022-08-01T21:19:22.075Z,22.09
2022-08-01T21:21:24.071Z,22.1
2022-08-01T21:23:38.519Z,22.110001
2022-08-01T21:25:52.849Z,22.120001
2022-08-01T21:28:07.297Z,22.120001
